sensor_id;sensor_type;location;lat;lon;timestamp;P1;durP1;ratioP1;P2;durP2;ratioP2
60086;SDS011;45960;53.630;55.972;2023-03-05T00:00:04;5.13;;;3.50;;
60086;SDS011;45960;53.630;55.972;2023-03-05T00:01:18;7.13;;;3.55;;
60086;SDS011;45960;53.630;55.972;2023-03-05T00:02:24;5.90;;;3.45;;
60086;SDS011;45960;53.630;55.972;2023-03-05T00:03:24;9.77;;;4.47;;
60086;SDS011;45960;53.630;55.972;2023-03-05T00:04:25;7.43;;;4.30;;
60086;SDS011;45960;53.630;55.972;2023-03-05T00:05:27;5.18;;;3.42;;
60086;SDS011;45960;53.630;55.972;2023-03-05T00:06:28;6.28;;;3.28;;
60086;SDS011;45960;53.630;55.972;2023-03-05T00:07:30;5.57;;;3.75;;
60086;SDS011;45960;53.630;55.972;2023-03-05T00:08:32;8.52;;;3.58;;
60086;SDS011;45960;53.630;55.972;2023-03-05T00:09:33;9.32;;;4.40;;
60086;SDS011;45960;53.630;55.972;2023-03-05T00:10:34;7.90;;;3.55;;
60086;SDS011;45960;53.630;55.972;2023-03-05T00:11:35;6.65;;;3.28;;
60086;SDS011;45960;53.630;55.972;2023-03-05T00:12:37;6.03;;;3.65;;
60086;SDS011;45960;53.630;55.972;2023-03-05T00:13:38;7.72;;;4.05;;
60086;SDS011;45960;53.630;55.972;2023-03-05T00:14:39;8.10;;;4.05;;
60086;SDS011;45960;53.630;55.972;2023-03-05T00:15:41;6.70;;;3.58;;
60086;SDS011;45960;53.630;55.972;2023-03-05T00:16:42;7.90;;;3.95;;
60086;SDS011;45960;53.630;55.972;2023-03-05T00:17:43;8.18;;;4.07;;
60086;SDS011;45960;53.630;55.972;2023-03-05T00:18:44;8.10;;;4.40;;
60086;SDS011;45960;53.630;55.972;2023-03-05T00:19:46;6.25;;;3.72;;
60086;SDS011;45960;53.630;55.972;2023-03-05T00:20:47;5.65;;;3.40;;
60086;SDS011;45960;53.630;55.972;2023-03-05T00:21:48;8.05;;;4.13;;
60086;SDS011;45960;53.630;55.972;2023-03-05T00:22:49;7.72;;;3.78;;
60086;SDS011;45960;53.630;55.972;2023-03-05T00:23:51;7.47;;;3.92;;
60086;SDS011;45960;53.630;55.972;2023-03-05T00:24:52;10.82;;;4.20;;
60086;SDS011;45960;53.630;55.972;2023-03-05T00:25:53;11.38;;;3.30;;
60086;SDS011;45960;53.630;55.972;2023-03-05T00:26:55;5.75;;;3.50;;
60086;SDS011;45960;53.630;55.972;2023-03-05T00:27:56;6.28;;;4.07;;
60086;SDS011;45960;53.630;55.972;2023-03-05T00:28:58;6.28;;;3.80;;
60086;SDS011;45960;53.630;55.972;2023-03-05T00:30:00;8.70;;;4.80;;
60086;SDS011;45960;53.630;55.972;2023-03-05T00:31:01;9.32;;;4.38;;
60086;SDS011;45960;53.630;55.972;2023-03-05T00:32:02;7.85;;;4.53;;
60086;SDS011;45960;53.630;55.972;2023-03-05T00:33:03;6.28;;;4.05;;
60086;SDS011;45960;53.630;55.972;2023-03-05T00:34:06;6.80;;;4.55;;
60086;SDS011;45960;53.630;55.972;2023-03-05T00:35:09;9.10;;;5.00;;
60086;SDS011;45960;53.630;55.972;2023-03-05T00:36:10;7.97;;;4.47;;
60086;SDS011;45960;53.630;55.972;2023-03-05T00:37:11;7.65;;;3.58;;
60086;SDS011;45960;53.630;55.972;2023-03-05T00:38:12;7.85;;;4.78;;
60086;SDS011;45960;53.630;55.972;2023-03-05T00:39:14;8.48;;;5.35;;
60086;SDS011;45960;53.630;55.972;2023-03-05T00:40:15;10.90;;;4.68;;
60086;SDS011;45960;53.630;55.972;2023-03-05T00:41:16;9.73;;;3.53;;
60086;SDS011;45960;53.630;55.972;2023-03-05T00:42:18;8.25;;;4.43;;
60086;SDS011;45960;53.630;55.972;2023-03-05T00:43:18;6.97;;;5.03;;
60086;SDS011;45960;53.630;55.972;2023-03-05T00:44:19;8.05;;;4.75;;
60086;SDS011;45960;53.630;55.972;2023-03-05T00:45:21;10.13;;;5.25;;
60086;SDS011;45960;53.630;55.972;2023-03-05T00:46:22;9.52;;;5.55;;
60086;SDS011;45960;53.630;55.972;2023-03-05T00:47:23;9.65;;;4.88;;
60086;SDS011;45960;53.630;55.972;2023-03-05T00:48:24;10.68;;;5.63;;
60086;SDS011;45960;53.630;55.972;2023-03-05T00:49:26;12.07;;;4.82;;
60086;SDS011;45960;53.630;55.972;2023-03-05T00:50:27;9.02;;;5.30;;
60086;SDS011;45960;53.630;55.972;2023-03-05T00:51:28;11.23;;;6.45;;
60086;SDS011;45960;53.630;55.972;2023-03-05T00:52:29;10.55;;;5.47;;
60086;SDS011;45960;53.630;55.972;2023-03-05T00:53:30;9.35;;;4.80;;
60086;SDS011;45960;53.630;55.972;2023-03-05T00:54:31;8.15;;;4.47;;
60086;SDS011;45960;53.630;55.972;2023-03-05T00:55:32;9.15;;;4.93;;
60086;SDS011;45960;53.630;55.972;2023-03-05T00:56:35;9.15;;;4.85;;
60086;SDS011;45960;53.630;55.972;2023-03-05T00:57:36;9.25;;;5.38;;
60086;SDS011;45960;53.630;55.972;2023-03-05T00:58:37;10.15;;;5.03;;
60086;SDS011;45960;53.630;55.972;2023-03-05T00:59:38;10.70;;;5.57;;
60086;SDS011;45960;53.630;55.972;2023-03-05T01:00:40;11.98;;;5.43;;
60086;SDS011;45960;53.630;55.972;2023-03-05T01:01:41;6.57;;;5.03;;
60086;SDS011;45960;53.630;55.972;2023-03-05T01:02:42;8.45;;;5.38;;
60086;SDS011;45960;53.630;55.972;2023-03-05T01:03:43;11.07;;;5.20;;
60086;SDS011;45960;53.630;55.972;2023-03-05T01:04:48;9.63;;;5.30;;
60086;SDS011;45960;53.630;55.972;2023-03-05T01:05:49;11.02;;;5.63;;
60086;SDS011;45960;53.630;55.972;2023-03-05T01:06:50;10.93;;;5.32;;
60086;SDS011;45960;53.630;55.972;2023-03-05T01:07:51;9.82;;;5.45;;
60086;SDS011;45960;53.630;55.972;2023-03-05T01:08:53;13.63;;;5.22;;
60086;SDS011;45960;53.630;55.972;2023-03-05T01:09:56;9.75;;;5.15;;
60086;SDS011;45960;53.630;55.972;2023-03-05T01:10:57;9.93;;;4.95;;
60086;SDS011;45960;53.630;55.972;2023-03-05T01:11:58;12.07;;;5.40;;
60086;SDS011;45960;53.630;55.972;2023-03-05T01:13:00;8.30;;;4.60;;
60086;SDS011;45960;53.630;55.972;2023-03-05T01:14:01;7.85;;;4.68;;
60086;SDS011;45960;53.630;55.972;2023-03-05T01:15:03;8.55;;;5.85;;
60086;SDS011;45960;53.630;55.972;2023-03-05T01:16:05;8.60;;;4.97;;
60086;SDS011;45960;53.630;55.972;2023-03-05T01:17:07;9.52;;;5.50;;
60086;SDS011;45960;53.630;55.972;2023-03-05T01:18:08;7.38;;;4.43;;
60086;SDS011;45960;53.630;55.972;2023-03-05T01:19:09;9.90;;;5.00;;
60086;SDS011;45960;53.630;55.972;2023-03-05T01:20:12;9.02;;;5.10;;
60086;SDS011;45960;53.630;55.972;2023-03-05T01:21:14;6.65;;;4.35;;
60086;SDS011;45960;53.630;55.972;2023-03-05T01:22:15;10.40;;;5.32;;
60086;SDS011;45960;53.630;55.972;2023-03-05T01:23:16;7.32;;;5.10;;
60086;SDS011;45960;53.630;55.972;2023-03-05T01:24:17;7.75;;;4.80;;
60086;SDS011;45960;53.630;55.972;2023-03-05T01:25:18;9.25;;;4.15;;
60086;SDS011;45960;53.630;55.972;2023-03-05T01:26:19;6.65;;;3.78;;
60086;SDS011;45960;53.630;55.972;2023-03-05T01:27:20;7.97;;;4.78;;
60086;SDS011;45960;53.630;55.972;2023-03-05T01:28:22;7.15;;;4.43;;
60086;SDS011;45960;53.630;55.972;2023-03-05T01:29:23;7.72;;;4.50;;
60086;SDS011;45960;53.630;55.972;2023-03-05T01:30:24;6.32;;;4.35;;
60086;SDS011;45960;53.630;55.972;2023-03-05T01:31:25;5.63;;;4.35;;
60086;SDS011;45960;53.630;55.972;2023-03-05T01:32:27;6.30;;;3.78;;
60086;SDS011;45960;53.630;55.972;2023-03-05T01:33:28;4.80;;;2.60;;
60086;SDS011;45960;53.630;55.972;2023-03-05T01:34:29;6.50;;;3.72;;
60086;SDS011;45960;53.630;55.972;2023-03-05T01:35:30;8.93;;;4.40;;
60086;SDS011;45960;53.630;55.972;2023-03-05T01:36:31;6.60;;;4.13;;
60086;SDS011;45960;53.630;55.972;2023-03-05T01:37:32;6.63;;;4.50;;
60086;SDS011;45960;53.630;55.972;2023-03-05T01:38:34;7.00;;;3.83;;
60086;SDS011;45960;53.630;55.972;2023-03-05T01:39:35;5.07;;;3.25;;
60086;SDS011;45960;53.630;55.972;2023-03-05T01:40:36;6.20;;;3.80;;
60086;SDS011;45960;53.630;55.972;2023-03-05T01:41:37;8.80;;;3.83;;
60086;SDS011;45960;53.630;55.972;2023-03-05T01:42:38;4.95;;;3.42;;
60086;SDS011;45960;53.630;55.972;2023-03-05T01:43:40;7.30;;;4.18;;
60086;SDS011;45960;53.630;55.972;2023-03-05T01:46:20;5.07;;;3.92;;
60086;SDS011;45960;53.630;55.972;2023-03-05T01:47:23;5.53;;;3.42;;
60086;SDS011;45960;53.630;55.972;2023-03-05T01:48:25;5.45;;;3.67;;
60086;SDS011;45960;53.630;55.972;2023-03-05T01:49:28;6.88;;;4.13;;
60086;SDS011;45960;53.630;55.972;2023-03-05T01:50:29;5.10;;;2.60;;
60086;SDS011;45960;53.630;55.972;2023-03-05T01:51:34;6.57;;;3.65;;
60086;SDS011;45960;53.630;55.972;2023-03-05T01:52:40;7.10;;;3.70;;
60086;SDS011;45960;53.630;55.972;2023-03-05T01:53:45;5.18;;;3.40;;
60086;SDS011;45960;53.630;55.972;2023-03-05T01:54:48;5.18;;;3.20;;
60086;SDS011;45960;53.630;55.972;2023-03-05T01:55:53;6.07;;;4.03;;
60086;SDS011;45960;53.630;55.972;2023-03-05T01:56:54;5.40;;;3.63;;
60086;SDS011;45960;53.630;55.972;2023-03-05T01:58:09;5.57;;;4.00;;
60086;SDS011;45960;53.630;55.972;2023-03-05T01:59:12;7.30;;;4.05;;
60086;SDS011;45960;53.630;55.972;2023-03-05T02:00:16;6.38;;;3.63;;
60086;SDS011;45960;53.630;55.972;2023-03-05T02:01:24;9.02;;;3.85;;
60086;SDS011;45960;53.630;55.972;2023-03-05T02:02:25;7.18;;;3.63;;
60086;SDS011;45960;53.630;55.972;2023-03-05T02:03:26;6.30;;;3.78;;
60086;SDS011;45960;53.630;55.972;2023-03-05T02:04:33;7.68;;;4.07;;
60086;SDS011;45960;53.630;55.972;2023-03-05T02:05:41;6.95;;;4.45;;
60086;SDS011;45960;53.630;55.972;2023-03-05T02:06:45;6.75;;;3.95;;
60086;SDS011;45960;53.630;55.972;2023-03-05T02:07:48;10.07;;;4.32;;
60086;SDS011;45960;53.630;55.972;2023-03-05T02:08:48;6.47;;;3.40;;
60086;SDS011;45960;53.630;55.972;2023-03-05T02:09:50;6.72;;;4.40;;
60086;SDS011;45960;53.630;55.972;2023-03-05T02:10:51;8.10;;;4.53;;
60086;SDS011;45960;53.630;55.972;2023-03-05T02:11:57;5.00;;;3.33;;
60086;SDS011;45960;53.630;55.972;2023-03-05T02:13:00;7.50;;;3.72;;
60086;SDS011;45960;53.630;55.972;2023-03-05T02:14:03;8.23;;;3.85;;
60086;SDS011;45960;53.630;55.972;2023-03-05T02:15:07;5.35;;;3.92;;
60086;SDS011;45960;53.630;55.972;2023-03-05T02:16:09;7.00;;;4.10;;
60086;SDS011;45960;53.630;55.972;2023-03-05T02:17:10;7.45;;;3.92;;
60086;SDS011;45960;53.630;55.972;2023-03-05T02:18:12;6.45;;;3.80;;
60086;SDS011;45960;53.630;55.972;2023-03-05T02:19:13;6.57;;;3.53;;
60086;SDS011;45960;53.630;55.972;2023-03-05T02:20:16;7.20;;;4.28;;
60086;SDS011;45960;53.630;55.972;2023-03-05T02:21:26;8.32;;;4.28;;
60086;SDS011;45960;53.630;55.972;2023-03-05T02:22:29;6.63;;;4.03;;
60086;SDS011;45960;53.630;55.972;2023-03-05T02:23:31;7.15;;;5.00;;
60086;SDS011;45960;53.630;55.972;2023-03-05T02:24:35;5.15;;;3.47;;
60086;SDS011;45960;53.630;55.972;2023-03-05T02:25:37;7.05;;;4.45;;
60086;SDS011;45960;53.630;55.972;2023-03-05T02:26:38;8.10;;;4.20;;
60086;SDS011;45960;53.630;55.972;2023-03-05T02:27:39;7.95;;;4.75;;
60086;SDS011;45960;53.630;55.972;2023-03-05T02:28:46;7.38;;;4.03;;
60086;SDS011;45960;53.630;55.972;2023-03-05T02:29:52;6.65;;;3.95;;
60086;SDS011;45960;53.630;55.972;2023-03-05T02:30:53;5.78;;;3.47;;
60086;SDS011;45960;53.630;55.972;2023-03-05T02:31:54;7.05;;;3.83;;
60086;SDS011;45960;53.630;55.972;2023-03-05T02:32:55;6.15;;;3.85;;
60086;SDS011;45960;53.630;55.972;2023-03-05T02:33:57;9.00;;;4.20;;
60086;SDS011;45960;53.630;55.972;2023-03-05T02:34:59;8.82;;;4.57;;
60086;SDS011;45960;53.630;55.972;2023-03-05T02:36:01;6.93;;;4.53;;
60086;SDS011;45960;53.630;55.972;2023-03-05T02:37:02;7.13;;;4.65;;
60086;SDS011;45960;53.630;55.972;2023-03-05T02:38:05;7.88;;;3.75;;
60086;SDS011;45960;53.630;55.972;2023-03-05T02:39:06;5.78;;;3.83;;
60086;SDS011;45960;53.630;55.972;2023-03-05T02:40:10;9.38;;;4.50;;
60086;SDS011;45960;53.630;55.972;2023-03-05T02:41:14;6.30;;;3.97;;
60086;SDS011;45960;53.630;55.972;2023-03-05T02:42:16;6.15;;;3.72;;
60086;SDS011;45960;53.630;55.972;2023-03-05T02:43:17;6.55;;;3.85;;
60086;SDS011;45960;53.630;55.972;2023-03-05T02:44:18;6.30;;;3.95;;
60086;SDS011;45960;53.630;55.972;2023-03-05T02:45:19;9.73;;;4.88;;
60086;SDS011;45960;53.630;55.972;2023-03-05T02:46:20;7.47;;;4.63;;
60086;SDS011;45960;53.630;55.972;2023-03-05T02:47:22;7.63;;;4.03;;
60086;SDS011;45960;53.630;55.972;2023-03-05T02:48:23;7.10;;;4.45;;
60086;SDS011;45960;53.630;55.972;2023-03-05T02:49:24;7.60;;;3.95;;
60086;SDS011;45960;53.630;55.972;2023-03-05T02:50:25;7.63;;;4.47;;
60086;SDS011;45960;53.630;55.972;2023-03-05T02:51:27;9.63;;;5.32;;
60086;SDS011;45960;53.630;55.972;2023-03-05T02:52:28;7.32;;;4.20;;
60086;SDS011;45960;53.630;55.972;2023-03-05T02:53:31;7.70;;;4.68;;
60086;SDS011;45960;53.630;55.972;2023-03-05T02:54:32;9.32;;;4.75;;
60086;SDS011;45960;53.630;55.972;2023-03-05T02:55:33;8.43;;;4.68;;
60086;SDS011;45960;53.630;55.972;2023-03-05T02:56:34;11.45;;;6.35;;
60086;SDS011;45960;53.630;55.972;2023-03-05T02:57:37;9.13;;;5.10;;
60086;SDS011;45960;53.630;55.972;2023-03-05T02:58:38;8.25;;;4.75;;
60086;SDS011;45960;53.630;55.972;2023-03-05T02:59:40;8.93;;;5.32;;
60086;SDS011;45960;53.630;55.972;2023-03-05T03:00:41;7.97;;;4.72;;
60086;SDS011;45960;53.630;55.972;2023-03-05T03:01:42;6.40;;;4.57;;
60086;SDS011;45960;53.630;55.972;2023-03-05T03:02:43;9.32;;;5.40;;
60086;SDS011;45960;53.630;55.972;2023-03-05T03:03:44;7.53;;;4.57;;
60086;SDS011;45960;53.630;55.972;2023-03-05T03:04:46;7.53;;;3.80;;
60086;SDS011;45960;53.630;55.972;2023-03-05T03:05:47;7.70;;;4.72;;
60086;SDS011;45960;53.630;55.972;2023-03-05T03:06:48;7.47;;;4.28;;
60086;SDS011;45960;53.630;55.972;2023-03-05T03:07:49;7.65;;;4.30;;
60086;SDS011;45960;53.630;55.972;2023-03-05T03:08:50;8.02;;;4.32;;
60086;SDS011;45960;53.630;55.972;2023-03-05T03:09:51;8.27;;;4.60;;
60086;SDS011;45960;53.630;55.972;2023-03-05T03:10:52;8.20;;;5.07;;
60086;SDS011;45960;53.630;55.972;2023-03-05T03:11:55;8.00;;;4.47;;
60086;SDS011;45960;53.630;55.972;2023-03-05T03:12:56;8.52;;;4.53;;
60086;SDS011;45960;53.630;55.972;2023-03-05T03:13:58;9.25;;;4.32;;
60086;SDS011;45960;53.630;55.972;2023-03-05T03:15:00;8.55;;;5.35;;
60086;SDS011;45960;53.630;55.972;2023-03-05T03:16:02;8.13;;;4.93;;
60086;SDS011;45960;53.630;55.972;2023-03-05T03:17:05;13.55;;;3.92;;
60086;SDS011;45960;53.630;55.972;2023-03-05T03:18:07;8.02;;;4.50;;
60086;SDS011;45960;53.630;55.972;2023-03-05T03:19:09;7.70;;;3.97;;
60086;SDS011;45960;53.630;55.972;2023-03-05T03:20:10;8.90;;;4.38;;
60086;SDS011;45960;53.630;55.972;2023-03-05T03:21:17;11.27;;;5.05;;
60086;SDS011;45960;53.630;55.972;2023-03-05T03:22:23;9.27;;;4.88;;
60086;SDS011;45960;53.630;55.972;2023-03-05T03:23:24;7.72;;;4.60;;
60086;SDS011;45960;53.630;55.972;2023-03-05T03:24:25;11.38;;;5.43;;
60086;SDS011;45960;53.630;55.972;2023-03-05T03:25:27;8.50;;;4.10;;
60086;SDS011;45960;53.630;55.972;2023-03-05T03:26:28;9.40;;;5.20;;
60086;SDS011;45960;53.630;55.972;2023-03-05T03:27:30;10.48;;;5.28;;
60086;SDS011;45960;53.630;55.972;2023-03-05T03:28:31;9.20;;;4.97;;
60086;SDS011;45960;53.630;55.972;2023-03-05T03:29:32;8.38;;;4.78;;
60086;SDS011;45960;53.630;55.972;2023-03-05T03:30:33;8.90;;;5.15;;
60086;SDS011;45960;53.630;55.972;2023-03-05T03:31:34;8.23;;;4.82;;
60086;SDS011;45960;53.630;55.972;2023-03-05T03:32:35;7.97;;;4.60;;
60086;SDS011;45960;53.630;55.972;2023-03-05T03:33:36;10.13;;;5.28;;
60086;SDS011;45960;53.630;55.972;2023-03-05T03:34:37;9.13;;;5.55;;
60086;SDS011;45960;53.630;55.972;2023-03-05T03:35:38;9.25;;;5.30;;
60086;SDS011;45960;53.630;55.972;2023-03-05T03:36:40;9.32;;;5.40;;
60086;SDS011;45960;53.630;55.972;2023-03-05T03:37:44;11.75;;;5.72;;
60086;SDS011;45960;53.630;55.972;2023-03-05T03:38:46;10.70;;;6.07;;
60086;SDS011;45960;53.630;55.972;2023-03-05T03:39:47;9.50;;;5.55;;
60086;SDS011;45960;53.630;55.972;2023-03-05T03:42:16;11.18;;;5.72;;
60086;SDS011;45960;53.630;55.972;2023-03-05T03:43:18;8.65;;;5.18;;
60086;SDS011;45960;53.630;55.972;2023-03-05T03:44:19;11.48;;;6.30;;
60086;SDS011;45960;53.630;55.972;2023-03-05T03:45:20;10.35;;;5.15;;
60086;SDS011;45960;53.630;55.972;2023-03-05T03:46:22;9.43;;;5.32;;
60086;SDS011;45960;53.630;55.972;2023-03-05T03:47:23;12.02;;;6.75;;
60086;SDS011;45960;53.630;55.972;2023-03-05T03:48:24;9.40;;;6.10;;
60086;SDS011;45960;53.630;55.972;2023-03-05T03:49:25;10.55;;;6.75;;
60086;SDS011;45960;53.630;55.972;2023-03-05T03:50:26;11.13;;;6.07;;
60086;SDS011;45960;53.630;55.972;2023-03-05T03:51:27;10.52;;;5.72;;
60086;SDS011;45960;53.630;55.972;2023-03-05T03:52:29;11.85;;;6.13;;
60086;SDS011;45960;53.630;55.972;2023-03-05T03:53:30;10.48;;;4.95;;
60086;SDS011;45960;53.630;55.972;2023-03-05T03:54:31;11.75;;;6.72;;
60086;SDS011;45960;53.630;55.972;2023-03-05T03:55:33;11.63;;;5.88;;
60086;SDS011;45960;53.630;55.972;2023-03-05T03:56:35;11.25;;;5.60;;
60086;SDS011;45960;53.630;55.972;2023-03-05T03:57:36;12.23;;;7.55;;
60086;SDS011;45960;53.630;55.972;2023-03-05T03:58:37;10.77;;;5.30;;
60086;SDS011;45960;53.630;55.972;2023-03-05T03:59:38;13.50;;;6.57;;
60086;SDS011;45960;53.630;55.972;2023-03-05T04:00:39;13.82;;;6.50;;
60086;SDS011;45960;53.630;55.972;2023-03-05T04:01:41;10.82;;;5.97;;
60086;SDS011;45960;53.630;55.972;2023-03-05T04:02:43;11.40;;;5.82;;
60086;SDS011;45960;53.630;55.972;2023-03-05T04:03:44;14.95;;;7.80;;
60086;SDS011;45960;53.630;55.972;2023-03-05T04:04:45;15.30;;;6.65;;
60086;SDS011;45960;53.630;55.972;2023-03-05T04:05:46;12.40;;;6.97;;
60086;SDS011;45960;53.630;55.972;2023-03-05T04:06:47;10.20;;;6.60;;
60086;SDS011;45960;53.630;55.972;2023-03-05T04:07:48;14.48;;;7.80;;
60086;SDS011;45960;53.630;55.972;2023-03-05T04:08:50;12.07;;;7.20;;
60086;SDS011;45960;53.630;55.972;2023-03-05T04:09:51;13.45;;;7.55;;
60086;SDS011;45960;53.630;55.972;2023-03-05T04:10:52;14.25;;;6.95;;
60086;SDS011;45960;53.630;55.972;2023-03-05T04:11:53;12.10;;;7.30;;
60086;SDS011;45960;53.630;55.972;2023-03-05T04:12:54;11.55;;;6.80;;
60086;SDS011;45960;53.630;55.972;2023-03-05T04:13:55;18.15;;;8.68;;
60086;SDS011;45960;53.630;55.972;2023-03-05T04:14:56;12.48;;;7.15;;
60086;SDS011;45960;53.630;55.972;2023-03-05T04:15:57;15.55;;;8.35;;
60086;SDS011;45960;53.630;55.972;2023-03-05T04:16:58;14.20;;;7.15;;
60086;SDS011;45960;53.630;55.972;2023-03-05T04:17:59;12.50;;;7.43;;
60086;SDS011;45960;53.630;55.972;2023-03-05T04:19:00;13.73;;;7.18;;
60086;SDS011;45960;53.630;55.972;2023-03-05T04:20:02;12.93;;;7.35;;
60086;SDS011;45960;53.630;55.972;2023-03-05T04:21:05;15.95;;;8.30;;
60086;SDS011;45960;53.630;55.972;2023-03-05T04:22:09;19.10;;;7.47;;
60086;SDS011;45960;53.630;55.972;2023-03-05T04:23:12;14.90;;;8.02;;
60086;SDS011;45960;53.630;55.972;2023-03-05T04:24:13;18.00;;;7.68;;
60086;SDS011;45960;53.630;55.972;2023-03-05T04:25:14;7.35;;;4.45;;
60086;SDS011;45960;53.630;55.972;2023-03-05T04:26:15;13.07;;;6.88;;
60086;SDS011;45960;53.630;55.972;2023-03-05T04:27:16;10.45;;;6.35;;
60086;SDS011;45960;53.630;55.972;2023-03-05T04:28:17;14.43;;;7.00;;
60086;SDS011;45960;53.630;55.972;2023-03-05T04:29:19;12.30;;;7.05;;
60086;SDS011;45960;53.630;55.972;2023-03-05T04:30:20;9.32;;;5.63;;
60086;SDS011;45960;53.630;55.972;2023-03-05T04:31:21;8.98;;;5.50;;
60086;SDS011;45960;53.630;55.972;2023-03-05T04:32:23;11.45;;;6.18;;
60086;SDS011;45960;53.630;55.972;2023-03-05T04:33:29;12.50;;;6.40;;
60086;SDS011;45960;53.630;55.972;2023-03-05T04:34:30;15.07;;;7.03;;
60086;SDS011;45960;53.630;55.972;2023-03-05T04:35:32;14.23;;;7.20;;
60086;SDS011;45960;53.630;55.972;2023-03-05T04:36:33;16.73;;;8.77;;
60086;SDS011;45960;53.630;55.972;2023-03-05T04:37:35;15.27;;;8.27;;
60086;SDS011;45960;53.630;55.972;2023-03-05T04:38:36;17.05;;;8.38;;
60086;SDS011;45960;53.630;55.972;2023-03-05T04:39:37;14.43;;;8.30;;
60086;SDS011;45960;53.630;55.972;2023-03-05T04:40:38;17.75;;;8.15;;
60086;SDS011;45960;53.630;55.972;2023-03-05T04:41:39;12.35;;;7.03;;
60086;SDS011;45960;53.630;55.972;2023-03-05T04:42:40;15.75;;;7.35;;
60086;SDS011;45960;53.630;55.972;2023-03-05T04:43:41;15.27;;;7.60;;
60086;SDS011;45960;53.630;55.972;2023-03-05T04:44:42;15.52;;;8.07;;
60086;SDS011;45960;53.630;55.972;2023-03-05T04:45:43;11.85;;;6.32;;
60086;SDS011;45960;53.630;55.972;2023-03-05T04:46:44;13.25;;;7.20;;
60086;SDS011;45960;53.630;55.972;2023-03-05T04:47:45;10.40;;;6.25;;
60086;SDS011;45960;53.630;55.972;2023-03-05T04:48:46;14.88;;;7.32;;
60086;SDS011;45960;53.630;55.972;2023-03-05T04:49:47;13.73;;;7.03;;
60086;SDS011;45960;53.630;55.972;2023-03-05T04:50:48;13.88;;;7.07;;
60086;SDS011;45960;53.630;55.972;2023-03-05T04:51:49;15.05;;;7.43;;
60086;SDS011;45960;53.630;55.972;2023-03-05T04:52:50;13.75;;;7.60;;
60086;SDS011;45960;53.630;55.972;2023-03-05T04:53:52;13.13;;;6.80;;
60086;SDS011;45960;53.630;55.972;2023-03-05T04:54:52;15.45;;;7.35;;
60086;SDS011;45960;53.630;55.972;2023-03-05T04:55:54;14.00;;;7.65;;
60086;SDS011;45960;53.630;55.972;2023-03-05T04:56:55;8.85;;;5.15;;
60086;SDS011;45960;53.630;55.972;2023-03-05T04:57:56;17.08;;;8.32;;
60086;SDS011;45960;53.630;55.972;2023-03-05T04:58:57;11.80;;;6.68;;
60086;SDS011;45960;53.630;55.972;2023-03-05T04:59:59;15.35;;;8.60;;
60086;SDS011;45960;53.630;55.972;2023-03-05T05:01:00;14.73;;;7.68;;
60086;SDS011;45960;53.630;55.972;2023-03-05T05:02:03;12.38;;;6.97;;
60086;SDS011;45960;53.630;55.972;2023-03-05T05:03:04;15.82;;;7.85;;
60086;SDS011;45960;53.630;55.972;2023-03-05T05:04:05;13.45;;;8.23;;
60086;SDS011;45960;53.630;55.972;2023-03-05T05:05:07;12.52;;;7.93;;
60086;SDS011;45960;53.630;55.972;2023-03-05T05:06:10;14.23;;;8.05;;
60086;SDS011;45960;53.630;55.972;2023-03-05T05:07:11;14.60;;;7.88;;
60086;SDS011;45960;53.630;55.972;2023-03-05T05:08:12;10.15;;;4.88;;
60086;SDS011;45960;53.630;55.972;2023-03-05T05:09:13;16.23;;;7.90;;
60086;SDS011;45960;53.630;55.972;2023-03-05T05:10:15;9.70;;;5.43;;
60086;SDS011;45960;53.630;55.972;2023-03-05T05:11:16;14.88;;;7.60;;
60086;SDS011;45960;53.630;55.972;2023-03-05T05:12:17;16.27;;;8.10;;
60086;SDS011;45960;53.630;55.972;2023-03-05T05:13:18;12.60;;;6.25;;
60086;SDS011;45960;53.630;55.972;2023-03-05T05:14:19;8.48;;;5.65;;
60086;SDS011;45960;53.630;55.972;2023-03-05T05:15:21;12.88;;;6.55;;
60086;SDS011;45960;53.630;55.972;2023-03-05T05:16:22;12.60;;;6.18;;
60086;SDS011;45960;53.630;55.972;2023-03-05T05:17:23;12.77;;;7.30;;
60086;SDS011;45960;53.630;55.972;2023-03-05T05:18:24;12.68;;;7.30;;
60086;SDS011;45960;53.630;55.972;2023-03-05T05:19:25;14.02;;;7.25;;
60086;SDS011;45960;53.630;55.972;2023-03-05T05:20:27;13.55;;;7.90;;
60086;SDS011;45960;53.630;55.972;2023-03-05T05:21:28;15.60;;;6.88;;
60086;SDS011;45960;53.630;55.972;2023-03-05T05:22:29;15.00;;;8.57;;
60086;SDS011;45960;53.630;55.972;2023-03-05T05:23:30;11.70;;;6.85;;
60086;SDS011;45960;53.630;55.972;2023-03-05T05:24:31;14.23;;;7.88;;
60086;SDS011;45960;53.630;55.972;2023-03-05T05:25:32;13.88;;;7.38;;
60086;SDS011;45960;53.630;55.972;2023-03-05T05:26:33;15.50;;;7.65;;
60086;SDS011;45960;53.630;55.972;2023-03-05T05:27:34;17.40;;;8.70;;
60086;SDS011;45960;53.630;55.972;2023-03-05T05:28:35;16.63;;;8.27;;
60086;SDS011;45960;53.630;55.972;2023-03-05T05:29:37;12.75;;;6.43;;
60086;SDS011;45960;53.630;55.972;2023-03-05T05:30:39;13.85;;;7.55;;
60086;SDS011;45960;53.630;55.972;2023-03-05T05:31:40;14.07;;;7.85;;
60086;SDS011;45960;53.630;55.972;2023-03-05T05:32:41;21.45;;;8.50;;
60086;SDS011;45960;53.630;55.972;2023-03-05T05:33:42;12.13;;;6.78;;
60086;SDS011;45960;53.630;55.972;2023-03-05T05:34:43;14.77;;;7.35;;
60086;SDS011;45960;53.630;55.972;2023-03-05T05:35:44;16.58;;;7.50;;
60086;SDS011;45960;53.630;55.972;2023-03-05T05:36:46;15.27;;;8.25;;
60086;SDS011;45960;53.630;55.972;2023-03-05T05:37:47;13.48;;;7.25;;
60086;SDS011;45960;53.630;55.972;2023-03-05T05:38:48;12.25;;;6.70;;
60086;SDS011;45960;53.630;55.972;2023-03-05T05:39:49;13.48;;;6.25;;
60086;SDS011;45960;53.630;55.972;2023-03-05T05:40:51;14.07;;;7.97;;
60086;SDS011;45960;53.630;55.972;2023-03-05T05:41:52;12.63;;;8.10;;
60086;SDS011;45960;53.630;55.972;2023-03-05T05:42:53;16.13;;;8.52;;
60086;SDS011;45960;53.630;55.972;2023-03-05T05:43:54;15.60;;;8.18;;
60086;SDS011;45960;53.630;55.972;2023-03-05T05:44:55;13.32;;;6.95;;
60086;SDS011;45960;53.630;55.972;2023-03-05T05:46:00;17.63;;;8.23;;
60086;SDS011;45960;53.630;55.972;2023-03-05T05:47:02;16.02;;;7.70;;
60086;SDS011;45960;53.630;55.972;2023-03-05T05:48:03;14.52;;;7.85;;
60086;SDS011;45960;53.630;55.972;2023-03-05T05:49:05;15.07;;;8.15;;
60086;SDS011;45960;53.630;55.972;2023-03-05T05:50:05;17.30;;;7.43;;
60086;SDS011;45960;53.630;55.972;2023-03-05T05:51:08;14.00;;;8.30;;
60086;SDS011;45960;53.630;55.972;2023-03-05T05:52:14;14.90;;;7.38;;
60086;SDS011;45960;53.630;55.972;2023-03-05T05:53:15;15.77;;;7.72;;
60086;SDS011;45960;53.630;55.972;2023-03-05T05:54:16;16.20;;;8.88;;
60086;SDS011;45960;53.630;55.972;2023-03-05T05:55:18;18.02;;;7.90;;
60086;SDS011;45960;53.630;55.972;2023-03-05T05:56:19;15.45;;;7.90;;
60086;SDS011;45960;53.630;55.972;2023-03-05T05:57:20;17.30;;;8.20;;
60086;SDS011;45960;53.630;55.972;2023-03-05T05:58:21;20.30;;;10.45;;
60086;SDS011;45960;53.630;55.972;2023-03-05T05:59:22;23.30;;;9.20;;
60086;SDS011;45960;53.630;55.972;2023-03-05T06:00:23;18.17;;;9.23;;
60086;SDS011;45960;53.630;55.972;2023-03-05T06:01:26;15.43;;;7.35;;
60086;SDS011;45960;53.630;55.972;2023-03-05T06:02:30;16.48;;;10.55;;
60086;SDS011;45960;53.630;55.972;2023-03-05T06:03:31;21.02;;;9.43;;
60086;SDS011;45960;53.630;55.972;2023-03-05T06:04:32;19.48;;;9.05;;
60086;SDS011;45960;53.630;55.972;2023-03-05T06:05:35;19.45;;;9.05;;
60086;SDS011;45960;53.630;55.972;2023-03-05T06:06:36;20.10;;;9.55;;